Time;durP1;ratioP1;P1;durP2;ratioP2;P2;SDS_P1;SDS_P2;PMS_P1;PMS_P2;Temp;Humidity;BMP_temperature;BMP_pressure;BME280_temperature;BME280_humidity;BME280_pressure;Samples;Min_cycle;Max_cycle;Signal;HPM_P1;HPM_P2
2024/01/23 00:00:34;;;;;;;2.90;2.70;;;23.10;52.30;;;;;;222594;1267;22628;-55
2024/01/23 00:05:59;;;;;;;3.50;2.80;;;23.10;52.30;;;;;;222397;1261;22960;-55
2024/01/23 00:11:04;;;;;;;4.50;2.90;;;23.10;52.40;;;;;;222739;1267;26622;-55
2024/01/23 00:16:08;;;;;;;3.20;2.90;;;23.10;51.80;;;;;;222726;1266;24263;-56
2024/01/23 00:21:12;;;;;;;3.20;2.80;;;23.10;51.70;;;;;;222549;1265;24189;-55
2024/01/23 00:26:16;;;;;;;3.30;2.70;;;22.90;51.80;;;;;;222942;1260;22576;-55
2024/01/23 00:31:21;;;;;;;2.60;2.40;;;22.90;51.90;;;;;;222339;1260;24193;-54
2024/01/23 00:36:25;;;;;;;2.90;2.70;;;23.10;51.40;;;;;;222419;1260;23039;-54
2024/01/23 00:41:31;;;;;;;2.60;2.40;;;23.20;51.60;;;;;;222941;1244;22697;-56
2024/01/23 00:46:35;;;;;;;3.50;2.70;;;23.30;50.80;;;;;;222798;1253;25274;-55
2024/01/23 00:51:39;;;;;;;3.30;2.40;;;23.40;50.60;;;;;;222612;1255;22668;-54
2024/01/23 00:56:44;;;;;;;3.20;2.30;;;23.30;50.60;;;;;;222241;1267;24204;-52
2024/01/23 01:01:48;;;;;;;2.40;2.20;;;23.40;50.60;;;;;;222567;1265;22486;-54
2024/01/23 01:06:54;;;;;;;2.40;2.30;;;23.40;50.40;;;;;;222183;1266;24195;-55
2024/01/23 01:11:58;;;;;;;2.40;2.20;;;23.30;50.30;;;;;;222403;1266;24193;-54
2024/01/23 01:17:04;;;;;;;2.30;2.10;;;23.30;50.30;;;;;;222151;1265;22555;-55
2024/01/23 01:22:08;;;;;;;3.30;2.90;;;23.20;50.20;;;;;;222475;1267;22653;-56
2024/01/23 01:27:12;;;;;;;3.10;2.80;;;23.20;49.80;;;;;;222534;1266;22529;-55
2024/01/23 01:32:17;;;;;;;2.60;2.40;;;23.10;51.20;;;;;;222806;1264;22528;-54
2024/01/23 01:37:21;;;;;;;2.50;2.30;;;23.00;51.00;;;;;;222470;1265;22515;-54
2024/01/23 01:42:25;;;;;;;2.60;2.40;;;23.10;50.60;;;;;;222265;1256;24200;-55
2024/01/23 01:47:29;;;;;;;2.60;2.40;;;23.10;50.50;;;;;;222322;1260;22633;-53
2024/01/23 01:52:36;;;;;;;2.70;2.20;;;22.90;51.30;;;;;;222827;1260;22873;-55
2024/01/23 01:57:41;;;;;;;2.50;2.10;;;23.00;50.30;;;;;;222553;1260;22535;-55
2024/01/23 02:02:50;;;;;;;3.10;2.50;;;23.10;49.90;;;;;;222275;1257;22842;-53
2024/01/23 02:07:54;;;;;;;2.60;2.40;;;23.20;50.20;;;;;;222835;1266;22659;-54
2024/01/23 02:12:58;;;;;;;2.00;1.90;;;23.30;49.90;;;;;;222485;1256;24228;-55
2024/01/23 02:18:03;;;;;;;3.20;2.20;;;23.50;49.30;;;;;;222734;1266;25196;-54
2024/01/23 02:23:15;;;;;;;2.40;2.20;;;23.60;49.40;;;;;;222497;1264;22521;-54
2024/01/23 02:28:19;;;;;;;3.20;2.50;;;23.50;49.60;;;;;;222416;1265;22519;-54
2024/01/23 02:33:23;;;;;;;2.10;1.80;;;23.30;49.90;;;;;;222818;1259;25649;-52
2024/01/23 02:38:27;;;;;;;2.10;2.00;;;23.40;49.50;;;;;;222735;1266;22525;-53
2024/01/23 02:43:32;;;;;;;2.10;1.90;;;23.40;49.60;;;;;;222813;1266;24184;-53
2024/01/23 02:48:37;;;;;;;2.30;2.00;;;23.30;49.30;;;;;;222587;1265;23897;-53
2024/01/23 02:53:41;;;;;;;2.20;2.00;;;23.30;49.50;;;;;;222791;1264;25420;-55
2024/01/23 02:58:46;;;;;;;2.80;2.30;;;23.30;49.80;;;;;;222565;1267;22544;-52
2024/01/23 03:03:50;;;;;;;2.70;2.00;;;23.20;49.60;;;;;;222222;1264;22557;-54
2024/01/23 03:08:54;;;;;;;2.10;2.00;;;23.00;49.80;;;;;;222248;1266;22528;-56
2024/01/23 03:13:58;;;;;;;1.90;1.70;;;23.00;50.00;;;;;;222792;1268;22630;-55
2024/01/23 03:19:02;;;;;;;2.60;2.40;;;23.00;49.90;;;;;;222587;1266;24203;-56
2024/01/23 03:24:07;;;;;;;2.20;2.00;;;22.90;49.70;;;;;;222683;1265;24252;-55
2024/01/23 03:29:11;;;;;;;2.20;2.00;;;22.90;49.60;;;;;;222513;1268;22537;-52
2024/01/23 03:34:17;;;;;;;2.50;1.70;;;23.00;49.30;;;;;;222047;1267;25230;-53
2024/01/23 03:39:21;;;;;;;2.20;1.90;;;23.20;49.10;;;;;;222346;1265;24341;-56
2024/01/23 03:44:25;;;;;;;2.20;1.90;;;23.30;48.60;;;;;;222559;1264;24203;-56
2024/01/23 03:49:29;;;;;;;1.80;1.70;;;23.40;48.50;;;;;;222358;1265;24241;-56
2024/01/23 03:54:34;;;;;;;2.40;1.80;;;23.30;48.90;;;;;;222131;1266;22514;-56
2024/01/23 03:59:43;;;;;;;2.10;2.00;;;23.30;48.80;;;;;;222448;1258;25331;-56
2024/01/23 04:04:47;;;;;;;2.00;1.90;;;23.30;48.70;;;;;;222719;1265;24356;-55
2024/01/23 04:09:51;;;;;;;2.50;2.10;;;23.30;48.50;;;;;;222815;1266;23003;-57
2024/01/23 04:14:56;;;;;;;2.20;2.00;;;23.40;48.30;;;;;;222385;1267;25372;-56
2024/01/23 04:20:00;;;;;;;2.10;1.90;;;23.30;48.40;;;;;;222148;1266;22518;-55
2024/01/23 04:25:05;;;;;;;2.20;2.00;;;23.20;48.50;;;;;;222252;1262;22533;-56
2024/01/23 04:30:10;;;;;;;2.50;1.80;;;23.20;48.60;;;;;;222463;1254;25389;-55
2024/01/23 04:35:14;;;;;;;1.90;1.80;;;23.10;48.80;;;;;;222369;1262;22636;-57
2024/01/23 04:40:18;;;;;;;2.10;1.90;;;23.00;48.90;;;;;;222779;1266;22521;-56
2024/01/23 04:45:23;;;;;;;2.00;1.80;;;23.00;48.60;;;;;;222622;1268;24393;-56
2024/01/23 04:50:27;;;;;;;5.60;2.10;;;23.00;48.70;;;;;;222765;1266;24340;-57
2024/01/23 04:55:31;;;;;;;1.60;1.50;;;23.00;48.50;;;;;;222449;1267;22716;-56
2024/01/23 05:00:35;;;;;;;1.80;1.70;;;23.00;48.70;;;;;;222536;1267;23864;-56
2024/01/23 05:05:39;;;;;;;1.90;1.80;;;23.10;48.50;;;;;;222461;1262;22700;-56
2024/01/23 05:10:44;;;;;;;3.60;1.90;;;23.20;49.00;;;;;;222508;1260;24187;-56
2024/01/23 05:15:49;;;;;;;1.80;1.70;;;23.40;47.80;;;;;;222444;1262;23246;-55
2024/01/23 05:20:53;;;;;;;2.80;1.90;;;23.50;47.70;;;;;;222279;1267;24194;-54
2024/01/23 05:25:57;;;;;;;1.50;1.40;;;23.50;47.70;;;;;;222492;1261;22613;-54
2024/01/23 05:31:02;;;;;;;1.50;1.40;;;23.40;48.10;;;;;;222561;1267;24202;-55
2024/01/23 05:36:06;;;;;;;1.70;1.30;;;23.40;48.00;;;;;;222124;1268;24192;-56
2024/01/23 05:41:10;;;;;;;1.60;1.50;;;23.30;48.20;;;;;;222596;1266;22521;-55
2024/01/23 05:46:15;;;;;;;2.50;1.70;;;23.30;48.20;;;;;;222189;1266;627351;-54
2024/01/23 05:51:19;;;;;;;1.70;1.60;;;23.30;48.40;;;;;;222314;1260;25607;-55
2024/01/23 05:56:24;;;;;;;1.80;1.70;;;23.20;48.30;;;;;;222605;1266;24201;-55
2024/01/23 06:01:28;;;;;;;2.40;1.70;;;23.20;48.50;;;;;;222797;1262;22511;-55
2024/01/23 06:06:38;;;;;;;2.40;1.50;;;23.20;48.50;;;;;;222773;1267;26192;-55
2024/01/23 06:11:42;;;;;;;1.60;1.50;;;23.10;48.50;;;;;;222201;1250;22524;-54
2024/01/23 06:16:46;;;;;;;1.70;1.60;;;23.00;49.10;;;;;;222966;1260;25395;-55
2024/01/23 06:21:51;;;;;;;1.50;1.40;;;23.00;49.00;;;;;;222708;1265;22516;-56
2024/01/23 06:26:55;;;;;;;2.40;1.50;;;23.00;48.50;;;;;;223057;1266;23305;-55
2024/01/23 06:31:59;;;;;;;2.20;1.50;;;22.90;48.90;;;;;;222575;1261;24214;-55
2024/01/23 06:37:04;;;;;;;1.40;1.30;;;22.80;48.70;;;;;;222922;1260;24320;-56
2024/01/23 06:42:08;;;;;;;1.90;1.80;;;22.80;48.70;;;;;;222485;1260;22576;-56
2024/01/23 06:47:12;;;;;;;2.60;1.50;;;22.70;48.80;;;;;;222830;1260;24200;-56
2024/01/23 06:52:17;;;;;;;2.10;1.80;;;22.80;49.30;;;;;;222405;1258;22852;-56
2024/01/23 06:57:21;;;;;;;3.20;1.80;;;23.10;48.80;;;;;;222446;1244;24262;-48
2024/01/23 07:02:26;;;;;;;3.50;1.60;;;23.40;48.50;;;;;;222777;1261;22670;-46
2024/01/23 07:07:30;;;;;;;2.10;1.40;;;23.40;48.40;;;;;;222700;1266;23956;-47
2024/01/23 07:12:35;;;;;;;5.30;1.50;;;23.50;48.60;;;;;;222266;1263;22567;-47
2024/01/23 07:17:40;;;;;;;1.30;1.20;;;23.40;48.60;;;;;;222643;1264;25285;-47
2024/01/23 07:22:45;;;;;;;3.20;1.30;;;23.30;49.10;;;;;;222251;1260;23409;-47
2024/01/23 07:27:52;;;;;;;3.70;1.60;;;23.20;49.30;;;;;;222335;1261;22607;-44
2024/01/23 07:33:10;;;;;;;2.20;1.70;;;23.20;50.40;;;;;;222448;1267;25230;-46
2024/01/23 07:38:15;;;;;;;5.60;1.60;;;23.10;50.10;;;;;;222794;1253;22523;-53
2024/01/23 07:43:24;;;;;;;2.70;1.50;;;23.10;50.40;;;;;;223348;1267;22840;-47
2024/01/23 07:48:29;;;;;;;3.10;1.70;;;23.00;50.40;;;;;;222200;1267;23944;-47
2024/01/23 07:53:33;;;;;;;6.60;1.50;;;23.00;50.40;;;;;;222214;1249;24228;-46
2024/01/23 07:58:38;;;;;;;9.60;1.50;;;22.90;50.70;;;;;;222320;1254;22520;-48
2024/01/23 08:03:42;;;;;;;5.10;1.80;;;22.90;50.80;;;;;;222184;1260;25622;-46
2024/01/23 08:08:46;;;;;;;2.30;1.40;;;22.90;50.40;;;;;;222390;1257;23789;-46
2024/01/23 08:13:51;;;;;;;4.80;2.00;;;22.90;49.90;;;;;;226481;1264;24194;-51
2024/01/23 08:18:58;;;;;;;12.20;2.30;;;22.90;49.60;;;;;;222557;1264;26211;-45
2024/01/23 08:24:03;;;;;;;5.20;2.10;;;22.80;49.30;;;;;;222431;1266;22531;-46
2024/01/23 08:29:07;;;;;;;10.10;2.00;;;22.70;50.00;;;;;;222344;1244;25600;-47
2024/01/23 08:34:12;;;;;;;3.30;1.70;;;22.90;49.60;;;;;;222623;1264;24183;-46
2024/01/23 08:39:17;;;;;;;4.00;1.80;;;23.00;49.30;;;;;;222268;1267;22514;-45
2024/01/23 08:44:21;;;;;;;4.60;1.70;;;23.00;49.50;;;;;;222300;1250;26507;-46
2024/01/23 08:49:26;;;;;;;3.60;1.70;;;23.10;49.60;;;;;;222211;1249;24199;-47
2024/01/23 08:54:31;;;;;;;4.70;1.70;;;23.10;49.60;;;;;;222232;1266;24193;-48
2024/01/23 08:59:38;;;;;;;4.10;1.90;;;23.10;49.60;;;;;;222311;1264;22527;-50
2024/01/23 09:04:42;;;;;;;4.30;1.90;;;23.00;50.10;;;;;;222292;1261;24382;-45
2024/01/23 09:09:47;;;;;;;4.60;1.60;;;22.90;49.80;;;;;;222835;1260;24228;-46
2024/01/23 09:14:51;;;;;;;3.50;1.40;;;22.80;50.00;;;;;;222721;1263;22912;-45
2024/01/23 09:19:55;;;;;;;2.60;1.40;;;22.80;50.60;;;;;;222528;1267;24190;-46
2024/01/23 09:25:02;;;;;;;5.10;1.50;;;22.70;50.20;;;;;;223348;1264;24507;-46
2024/01/23 09:30:07;;;;;;;1.90;1.60;;;22.70;50.30;;;;;;222930;1267;25350;-45
2024/01/23 09:35:13;;;;;;;1.90;1.40;;;22.80;50.20;;;;;;223447;1260;22752;-45
2024/01/23 09:40:17;;;;;;;1.70;1.60;;;22.80;50.10;;;;;;222949;1267;24222;-45
2024/01/23 09:45:27;;;;;;;2.20;1.60;;;22.80;50.10;;;;;;222520;1267;24212;-45
2024/01/23 09:50:36;;;;;;;2.50;1.50;;;22.60;49.90;;;;;;222626;1244;22532;-47
2024/01/23 09:55:40;;;;;;;2.40;1.30;;;22.60;50.00;;;;;;222700;1261;22524;-46
2024/01/23 10:00:45;;;;;;;2.20;1.50;;;22.60;50.20;;;;;;222305;1260;24289;-47
2024/01/23 10:05:50;;;;;;;5.80;1.60;;;22.70;49.90;;;;;;222230;1265;22550;-49
2024/01/23 10:10:59;;;;;;;2.00;1.20;;;22.80;49.60;;;;;;222705;1264;24192;-46
2024/01/23 10:16:04;;;;;;;2.30;1.20;;;22.80;49.70;;;;;;222411;1265;23930;-46
2024/01/23 10:21:08;;;;;;;1.90;1.40;;;22.70;49.80;;;;;;222230;1267;22517;-49
2024/01/23 10:26:13;;;;;;;1.80;1.30;;;22.70;49.80;;;;;;222348;1260;25413;-46
2024/01/23 10:31:17;;;;;;;2.20;1.30;;;22.70;49.90;;;;;;222613;1260;22759;-46
2024/01/23 10:36:21;;;;;;;3.00;1.60;;;22.80;50.30;;;;;;222449;1267;22516;-48
2024/01/23 10:41:29;;;;;;;2.70;1.20;;;23.00;49.30;;;;;;222382;1261;24344;-47
2024/01/23 10:46:34;;;;;;;3.00;1.20;;;23.20;49.10;;;;;;222758;1265;22524;-48
2024/01/23 10:51:39;;;;;;;1.90;1.30;;;23.30;48.80;;;;;;222482;1265;24180;-46
2024/01/23 10:56:45;;;;;;;1.50;0.80;;;23.40;48.70;;;;;;222428;1265;24213;-44
2024/01/23 11:01:51;;;;;;;1.20;1.10;;;23.30;48.60;;;;;;222650;1263;24298;-46
2024/01/23 11:07:02;;;;;;;3.20;1.20;;;23.30;48.60;;;;;;222501;1262;22526;-45
2024/01/23 11:12:22;;;;;;;3.70;1.70;;;23.30;48.70;;;;;;222465;1262;24215;-46
2024/01/23 11:17:32;;;;;;;3.10;1.40;;;23.20;49.10;;;;;;222522;1267;24272;-46
2024/01/23 11:22:37;;;;;;;5.40;1.60;;;23.10;49.10;;;;;;222602;1267;25453;-48
2024/01/23 11:27:41;;;;;;;2.20;1.20;;;23.20;49.20;;;;;;222331;1266;22520;-47
2024/01/23 11:32:46;;;;;;;3.20;1.30;;;23.20;49.00;;;;;;222771;1261;22728;-47
2024/01/23 11:37:51;;;;;;;1.70;1.40;;;23.10;51.20;;;;;;222541;1260;22521;-48
2024/01/23 11:43:05;;;;;;;1.40;1.10;;;22.90;51.30;;;;;;222222;1264;24156;-47
2024/01/23 11:48:09;;;;;;;2.50;1.80;;;22.90;51.10;;;;;;222406;1258;24235;-48
2024/01/23 11:53:14;;;;;;;3.60;1.70;;;22.80;51.80;;;;;;222924;1263;22780;-48
2024/01/23 11:58:19;;;;;;;3.00;1.10;;;22.90;52.20;;;;;;222522;1262;22625;-46
2024/01/23 12:03:23;;;;;;;2.40;1.40;;;22.90;51.10;;;;;;222718;1260;24224;-47
2024/01/23 12:08:27;;;;;;;4.30;1.50;;;22.80;51.60;;;;;;222540;1267;24433;-56
2024/01/23 12:13:31;;;;;;;2.60;1.50;;;22.80;52.20;;;;;;222537;1267;24284;-57
2024/01/23 12:18:35;;;;;;;1.40;1.10;;;22.70;52.40;;;;;;222384;1264;22511;-56
2024/01/23 12:23:40;;;;;;;2.10;1.00;;;22.60;53.80;;;;;;222583;1267;24341;-54
2024/01/23 12:28:46;;;;;;;1.90;1.30;;;22.80;53.70;;;;;;223059;1262;22518;-53
2024/01/23 12:33:50;;;;;;;4.80;1.20;;;23.00;53.00;;;;;;222228;1268;25407;-53
2024/01/23 12:38:55;;;;;;;2.70;1.00;;;23.20;52.90;;;;;;222380;1265;22666;-56
2024/01/23 12:44:00;;;;;;;2.70;1.50;;;23.40;52.60;;;;;;224998;1260;26510;-53
2024/01/23 12:49:06;;;;;;;1.60;1.10;;;23.50;52.70;;;;;;223453;1264;24249;-52
2024/01/23 12:54:10;;;;;;;1.60;1.10;;;23.40;52.60;;;;;;222387;1267;24215;-46
2024/01/23 12:59:14;;;;;;;1.80;1.20;;;23.30;52.90;;;;;;222594;1264;22523;-46
2024/01/23 13:04:18;;;;;;;1.90;1.30;;;23.30;53.10;;;;;;222587;1265;22570;-47
2024/01/23 13:09:23;;;;;;;2.30;1.40;;;23.30;52.80;;;;;;222149;1262;25402;-46
2024/01/23 13:14:31;;;;;;;2.10;1.20;;;23.10;53.60;;;;;;222345;1267;22534;-46
2024/01/23 13:19:35;;;;;;;1.20;1.10;;;23.00;54.00;;;;;;222945;1262;22516;-47
2024/01/23 13:24:40;;;;;;;3.00;1.50;;;22.90;54.70;;;;;;222409;1259;25321;-47
2024/01/23 13:29:47;;;;;;;1.80;1.30;;;22.80;54.20;;;;;;222088;1265;22651;-45
2024/01/23 13:34:52;;;;;;;1.70;1.20;;;22.90;55.20;;;;;;223141;1261;22541;-46
2024/01/23 13:39:57;;;;;;;1.20;0.90;;;22.80;54.80;;;;;;222749;1263;24225;-44
2024/01/23 13:45:04;;;;;;;1.80;1.00;;;22.70;54.90;;;;;;222366;1267;24365;-46
2024/01/23 13:50:09;;;;;;;2.10;1.20;;;22.70;55.40;;;;;;222548;1265;22620;-46
2024/01/23 13:55:14;;;;;;;4.50;1.20;;;22.70;54.10;;;;;;222396;1260;22517;-45
2024/01/23 14:00:23;;;;;;;5.10;1.50;;;23.00;53.70;;;;;;222851;1263;25687;-45
2024/01/23 14:05:38;;;;;;;3.60;1.20;;;23.10;53.50;;;;;;222664;1264;22663;-52
2024/01/23 14:10:55;;;;;;;3.00;1.20;;;23.20;53.30;;;;;;222858;1260;22524;-46
2024/01/23 14:16:18;;;;;;;3.20;1.50;;;23.30;53.60;;;;;;222877;1255;26656;-44
2024/01/23 14:21:40;;;;;;;7.90;2.30;;;23.20;53.30;;;;;;223454;1260;24203;-45
2024/01/23 14:27:06;;;;;;;6.60;2.30;;;23.10;52.10;;;;;;222602;1267;22517;-44
2024/01/23 14:32:20;;;;;;;4.70;2.20;;;23.10;51.60;;;;;;222538;1260;23009;-46
2024/01/23 14:37:37;;;;;;;6.30;3.10;;;23.10;50.60;;;;;;222735;1266;24252;-46
2024/01/23 14:42:58;;;;;;;5.00;2.70;;;23.00;49.30;;;;;;222806;1262;26036;-49
2024/01/23 14:48:16;;;;;;;5.70;2.50;;;22.80;48.90;;;;;;222444;1267;22703;-49
2024/01/23 14:53:34;;;;;;;5.40;2.40;;;22.80;47.50;;;;;;221961;1261;22604;-46
2024/01/23 14:59:14;;;;;;;;;;;22.90;47.00;;;;;;222937;1266;25307;-45
2024/01/23 15:04:42;;;;;;;6.00;2.90;;;22.90;46.30;;;;;;224757;1262;23142;-48
2024/01/23 15:09:47;;;;;;;7.60;3.00;;;22.80;46.50;;;;;;223134;1262;23533;-47
2024/01/23 15:14:52;;;;;;;6.50;3.10;;;22.70;45.70;;;;;;222376;1266;22520;-46
2024/01/23 15:19:58;;;;;;;7.90;2.90;;;22.70;46.20;;;;;;222324;1262;24209;-47
2024/01/23 15:25:06;;;;;;;6.80;3.00;;;23.00;44.50;;;;;;222586;1251;24942;-48
2024/01/23 15:30:11;;;;;;;7.70;3.10;;;22.90;43.20;;;;;;222487;1246;22520;-46
2024/01/23 15:35:16;;;;;;;3.70;2.70;;;23.00;45.00;;;;;;222494;1264;24193;-46
2024/01/23 15:40:20;;;;;;;6.00;2.50;;;23.10;44.60;;;;;;222048;1262;22537;-46
2024/01/23 15:45:25;;;;;;;6.70;2.70;;;23.30;44.50;;;;;;222738;1264;24232;-45
2024/01/23 15:50:30;;;;;;;6.90;3.00;;;23.30;44.40;;;;;;222301;1261;25550;-49
2024/01/23 15:55:36;;;;;;;8.40;2.90;;;23.30;44.60;;;;;;222397;1260;24174;-46
2024/01/23 16:00:45;;;;;;;5.30;2.70;;;23.40;44.20;;;;;;222949;1261;24232;-47
2024/01/23 16:05:51;;;;;;;5.70;2.90;;;23.50;44.20;;;;;;223275;1262;25428;-48
2024/01/23 16:11:06;;;;;;;6.50;2.80;;;23.70;43.70;;;;;;224821;1265;22537;-48
2024/01/23 16:16:12;;;;;;;5.00;2.50;;;23.60;44.10;;;;;;222580;1262;22789;-46
2024/01/23 16:21:18;;;;;;;4.10;2.70;;;23.50;44.30;;;;;;222955;1260;25160;-45
2024/01/23 16:26:28;;;;;;;6.00;3.10;;;23.50;45.10;;;;;;223191;1264;24261;-47
2024/01/23 16:31:39;;;;;;;4.80;2.70;;;23.40;44.10;;;;;;221706;1268;23138;-46
2024/01/23 16:36:57;;;;;;;9.90;2.90;;;23.40;45.20;;;;;;221663;1267;24303;-49
2024/01/23 16:42:02;;;;;;;5.00;2.40;;;23.40;45.60;;;;;;221072;1271;25461;-47
2024/01/23 16:47:07;;;;;;;5.20;2.90;;;23.40;46.30;;;;;;221060;1271;24165;-47
2024/01/23 16:52:11;;;;;;;5.20;2.90;;;23.40;46.40;;;;;;220995;1271;23428;-48
2024/01/23 16:57:18;;;;;;;7.10;3.10;;;23.30;46.40;;;;;;220731;1266;22540;-48
2024/01/23 17:02:23;;;;;;;5.90;2.80;;;23.40;46.80;;;;;;220683;1274;22526;-47
2024/01/23 17:07:27;;;;;;;7.70;2.90;;;23.50;48.60;;;;;;220812;1271;25411;-48
2024/01/23 17:12:41;;;;;;;7.30;2.60;;;23.60;48.50;;;;;;221390;1253;24271;-49
2024/01/23 17:18:06;;;;;;;12.70;2.90;;;23.60;50.30;;;;;;221412;1271;25714;-46
2024/01/23 17:23:11;;;;;;;10.80;3.40;;;23.50;50.40;;;;;;221459;1269;23936;-47
2024/01/23 17:28:16;;;;;;;5.10;2.40;;;23.40;50.90;;;;;;222222;1262;22603;-47
2024/01/23 17:33:21;;;;;;;8.10;2.60;;;23.40;50.70;;;;;;222274;1262;22540;-47
2024/01/23 17:38:31;;;;;;;9.30;2.90;;;23.30;51.20;;;;;;230243;1259;23110;-48
2024/01/23 17:43:48;;;;;;;6.20;2.30;;;23.40;51.20;;;;;;227220;1269;2763426;-48
2024/01/23 17:49:09;;;;;;;7.30;2.50;;;23.60;51.10;;;;;;225110;1253;23920;-51
2024/01/23 17:54:31;;;;;;;7.10;2.90;;;23.60;51.00;;;;;;221197;1275;22527;-51
2024/01/23 17:59:40;;;;;;;6.20;2.70;;;23.30;51.70;;;;;;220973;1272;25492;-49
2024/01/23 18:04:51;;;;;;;4.90;2.70;;;23.20;52.50;;;;;;220712;1265;22765;-50
2024/01/23 18:10:15;;;;;;;4.50;2.50;;;23.20;51.90;;;;;;220431;1268;25240;-47
2024/01/23 18:15:21;;;;;;;3.80;2.10;;;23.10;52.30;;;;;;220512;1272;22785;-48
2024/01/23 18:20:25;;;;;;;9.80;2.70;;;23.20;52.10;;;;;;220550;1274;24412;-51
2024/01/23 18:25:34;;;;;;;7.80;2.70;;;23.20;53.40;;;;;;220868;1272;22674;-47
2024/01/23 18:30:39;;;;;;;5.40;2.30;;;23.00;53.40;;;;;;221425;1253;23096;-50
2024/01/23 18:35:44;;;;;;;5.10;2.60;;;22.90;53.60;;;;;;221352;1262;22554;-47
2024/01/23 18:40:49;;;;;;;7.30;3.10;;;23.20;52.90;;;;;;221127;1271;22530;-49
2024/01/23 18:45:57;;;;;;;21.90;13.80;;;23.40;52.50;;;;;;221719;1269;24203;-52
2024/01/23 18:51:01;;;;;;;18.20;11.40;;;23.60;51.50;;;;;;222890;1270;24472;-50
2024/01/23 18:56:06;;;;;;;15.70;10.00;;;23.60;51.00;;;;;;221790;1263;23614;-51
2024/01/23 19:01:11;;;;;;;12.90;8.60;;;23.60;50.90;;;;;;222066;1267;22592;-52
2024/01/23 19:06:16;;;;;;;15.50;9.60;;;23.50;50.90;;;;;;225943;1267;23314;-54
2024/01/23 19:11:20;;;;;;;14.30;8.70;;;23.50;50.90;;;;;;227671;1268;24339;-51
2024/01/23 19:16:26;;;;;;;17.40;8.80;;;23.50;50.70;;;;;;223503;1266;25660;-50
2024/01/23 19:21:30;;;;;;;14.60;8.20;;;23.40;50.70;;;;;;222914;1265;24195;-51
2024/01/23 19:26:35;;;;;;;17.00;7.20;;;23.40;50.70;;;;;;222427;1265;23509;-52
2024/01/23 19:31:40;;;;;;;13.10;7.00;;;23.30;51.30;;;;;;222625;1262;25036;-50
2024/01/23 19:36:44;;;;;;;13.70;7.10;;;23.30;51.00;;;;;;222604;1266;23975;-50
2024/01/23 19:41:49;;;;;;;11.90;6.50;;;23.10;50.90;;;;;;222399;1260;22517;-50
2024/01/23 19:46:57;;;;;;;13.40;6.70;;;23.10;51.20;;;;;;222615;1260;22648;-56
2024/01/23 19:52:01;;;;;;;14.90;7.50;;;23.10;52.20;;;;;;222143;1260;24346;-53
2024/01/23 19:57:06;;;;;;;15.70;6.20;;;23.00;51.90;;;;;;222499;1260;24836;-50
2024/01/23 20:02:11;;;;;;;10.70;5.90;;;23.10;51.70;;;;;;222013;1264;24177;-51
2024/01/23 20:07:15;;;;;;;15.00;6.80;;;23.00;51.90;;;;;;222376;1266;22674;-51
2024/01/23 20:12:20;;;;;;;10.10;5.80;;;23.00;51.60;;;;;;222376;1265;22619;-49
2024/01/23 20:17:25;;;;;;;12.60;6.70;;;23.00;51.70;;;;;;222302;1244;24173;-55
2024/01/23 20:22:30;;;;;;;9.10;5.30;;;23.00;51.60;;;;;;222903;1263;25265;-55
2024/01/23 20:27:43;;;;;;;13.80;6.00;;;23.30;51.10;;;;;;222089;1268;25300;-52
2024/01/23 20:32:48;;;;;;;12.90;6.00;;;23.50;51.10;;;;;;222412;1256;22780;-49
2024/01/23 20:37:54;;;;;;;12.50;5.20;;;23.50;50.90;;;;;;222494;1265;24710;-45
2024/01/23 20:43:01;;;;;;;10.40;5.40;;;23.50;50.60;;;;;;222543;1260;24199;-44
2024/01/23 20:48:09;;;;;;;7.60;5.00;;;23.40;50.90;;;;;;222494;1266;22518;-47
2024/01/23 20:53:13;;;;;;;8.40;5.70;;;23.40;50.60;;;;;;227097;1267;22659;-45
2024/01/23 20:58:18;;;;;;;15.90;6.20;;;23.30;50.80;;;;;;222237;1267;23017;-46
2024/01/23 21:03:23;;;;;;;10.20;5.10;;;23.30;51.30;;;;;;222638;1265;23408;-45
2024/01/23 21:08:30;;;;;;;10.30;5.40;;;23.30;52.00;;;;;;222426;1260;22516;-50
2024/01/23 21:13:35;;;;;;;12.10;5.10;;;23.20;52.10;;;;;;222376;1251;24938;-46
2024/01/23 21:18:39;;;;;;;7.30;4.90;;;23.30;51.30;;;;;;221992;1267;25373;-48
2024/01/23 21:23:44;;;;;;;13.60;5.60;;;23.30;51.50;;;;;;222599;1268;22575;-55
2024/01/23 21:28:49;;;;;;;7.60;4.70;;;23.10;52.20;;;;;;222343;1261;22639;-55
2024/01/23 21:33:54;;;;;;;6.30;5.30;;;23.00;52.00;;;;;;222170;1260;22590;-51
2024/01/23 21:38:58;;;;;;;9.10;4.70;;;23.00;51.80;;;;;;222505;1266;24995;-52
2024/01/23 21:44:03;;;;;;;12.60;4.90;;;23.10;51.60;;;;;;222221;1263;22734;-54
2024/01/23 21:49:08;;;;;;;7.80;5.10;;;23.20;52.00;;;;;;222494;1266;22533;-53
2024/01/23 21:54:14;;;;;;;6.90;4.50;;;23.40;50.70;;;;;;222681;1265;22573;-54
2024/01/23 21:59:18;;;;;;;9.60;5.00;;;23.50;50.80;;;;;;222683;1245;23652;-54
2024/01/23 22:04:23;;;;;;;20.50;6.20;;;23.50;50.40;;;;;;222586;1266;24216;-54
2024/01/23 22:09:28;;;;;;;13.10;5.40;;;23.50;53.50;;;;;;222632;1257;22537;-53
2024/01/23 22:14:32;;;;;;;13.10;6.10;;;23.40;54.00;;;;;;222443;1268;25326;-53
2024/01/23 22:19:36;;;;;;;15.60;5.40;;;23.40;52.90;;;;;;222284;1266;24225;-54
2024/01/23 22:24:41;;;;;;;9.40;4.60;;;23.30;52.70;;;;;;222425;1265;22520;-54
2024/01/23 22:29:46;;;;;;;8.10;4.70;;;23.30;52.90;;;;;;222982;1267;24139;-52
2024/01/23 22:34:50;;;;;;;7.80;4.70;;;23.10;52.70;;;;;;222735;1265;22596;-55
2024/01/23 22:39:56;;;;;;;9.90;4.30;;;23.00;53.40;;;;;;222607;1263;22541;-58
2024/01/23 22:45:03;;;;;;;9.60;4.70;;;22.90;53.10;;;;;;222744;1267;22600;-57
2024/01/23 22:50:08;;;;;;;9.50;4.60;;;22.90;53.00;;;;;;222675;1263;25586;-53
2024/01/23 22:55:13;;;;;;;9.10;5.00;;;22.90;53.00;;;;;;222587;1264;24239;-51
2024/01/23 23:00:18;;;;;;;7.10;4.30;;;23.00;52.80;;;;;;222381;1267;22581;-54
2024/01/23 23:05:24;;;;;;;6.90;4.20;;;23.10;52.70;;;;;;223106;1260;24211;-52
2024/01/23 23:10:28;;;;;;;10.00;4.20;;;23.30;51.90;;;;;;222873;1261;24166;-56
2024/01/23 23:15:34;;;;;;;8.20;4.30;;;23.40;51.80;;;;;;222287;1266;24263;-56
2024/01/23 23:20:39;;;;;;;12.00;4.80;;;23.60;51.60;;;;;;222274;1268;22585;-55
2024/01/23 23:25:43;;;;;;;11.60;4.80;;;23.50;52.20;;;;;;222540;1254;23954;-55
2024/01/23 23:30:48;;;;;;;10.50;4.50;;;23.40;55.50;;;;;;222762;1267;22674;-59
2024/01/23 23:35:53;;;;;;;9.50;4.40;;;23.40;55.00;;;;;;223156;1267;22526;-58
2024/01/23 23:40:57;;;;;;;12.40;4.20;;;23.40;55.10;;;;;;222262;1267;22517;-57
2024/01/23 23:46:01;;;;;;;12.40;4.90;;;23.40;55.10;;;;;;222288;1266;22599;-58
2024/01/23 23:51:05;;;;;;;10.00;3.80;;;23.30;55.00;;;;;;222607;1254;25433;-58
2024/01/23 23:56:10;;;;;;;8.70;4.40;;;23.30;54.70;;;;;;222511;1266;24224;-58
